createdAt,value
2019-05-04T00:00:28.467Z,90.95
2019-05-04T00:02:56.874Z,89.49
2019-05-04T00:05:27.031Z,90.55
2019-05-04T00:07:55.447Z,89.89
2019-05-04T00:10:25.128Z,89.72
2019-05-04T00:12:54.338Z,90.76
2019-05-04T00:15:24.907Z,90.76
2019-05-04T00:17:54.939Z,91.37
2019-05-04T00:20:23.088Z,91.39
2019-05-04T00:22:51.510Z,91.33
2019-05-04T00:25:19.939Z,91.45
2019-05-04T00:27:48.355Z,91.58
2019-05-04T00:30:16.884Z,91.53
2019-05-04T00:32:46.915Z,90.37
2019-05-04T00:35:34.577Z,91.52
2019-05-04T00:38:05.250Z,90.82
2019-05-04T00:40:35.408Z,91.29
2019-05-04T00:43:05.481Z,91.85
2019-05-04T00:45:35.495Z,91.64
2019-05-04T00:48:04.582Z,92.70
2019-05-04T00:50:34.496Z,93.15
2019-05-04T00:53:05.240Z,91.61
2019-05-04T00:55:47.121Z,92.40
2019-05-04T00:58:19.842Z,90.91
2019-05-04T01:01:02.083Z,91.72
2019-05-04T01:03:30.545Z,91.34
2019-05-04T01:05:59.014Z,92.02
2019-05-04T01:08:27.607Z,88.32
2019-05-04T01:10:56.023Z,89.68
2019-05-04T01:13:24.810Z,89.47
2019-05-04T01:15:55.130Z,90.89
2019-05-04T01:18:24.570Z,90.94
2019-05-04T01:20:55.216Z,90.70
2019-05-04T01:23:24.900Z,91.49
2019-05-04T01:25:55.475Z,90.76
2019-05-04T01:28:24.471Z,90.79
2019-05-04T01:30:52.974Z,91.46
2019-05-04T01:33:24.683Z,91.05
2019-05-04T01:36:05.231Z,91.69
2019-05-04T01:38:38.237Z,91.30
2019-05-04T01:41:24.685Z,92.87
2019-05-04T01:43:54.653Z,93.04
2019-05-04T01:46:23.173Z,91.89
2019-05-04T01:48:51.567Z,91.66
2019-05-04T01:51:19.970Z,91.58
2019-05-04T01:53:48.434Z,90.90
2019-05-04T01:56:18.488Z,91.10
2019-05-04T01:58:48.524Z,91.93
2019-05-04T02:01:17.008Z,92.90
2019-05-04T02:03:45.399Z,92.30
2019-05-04T02:06:15.442Z,90.81
2019-05-04T02:08:58.336Z,92.59
2019-05-04T02:11:26.880Z,92.73
2019-05-04T02:13:55.870Z,92.84
2019-05-04T02:16:25.286Z,92.92
2019-05-04T02:18:54.751Z,92.93
2019-05-04T02:21:24.879Z,92.66
2019-05-04T02:23:54.951Z,92.73
2019-05-04T02:26:25.166Z,92.42
2019-05-04T02:28:55.319Z,93.58
2019-05-04T02:31:26.259Z,92.63
2019-05-04T02:33:56.081Z,92.47
2019-05-04T02:36:26.137Z,92.37
2019-05-04T02:38:55.707Z,91.78
2019-05-04T02:41:30.498Z,93.17
2019-05-04T02:43:58.938Z,92.05
2019-05-04T02:46:27.469Z,91.75
2019-05-04T02:48:57.582Z,91.56
2019-05-04T02:51:27.648Z,92.54
2019-05-04T02:53:56.043Z,92.05
2019-05-04T02:56:25.999Z,92.67
2019-05-04T02:58:55.522Z,92.25
2019-05-04T03:01:25.694Z,92.47
2019-05-04T03:03:56.054Z,93.53
2019-05-04T03:06:25.311Z,93.84
2019-05-04T03:08:55.713Z,93.56
2019-05-04T03:11:25.736Z,92.95
2019-05-04T03:13:56.126Z,93.70
2019-05-04T03:16:40.528Z,93.28
2019-05-04T03:18:56.220Z,92.50
2019-05-04T03:21:31.764Z,93.77
2019-05-04T03:24:00.454Z,93.53
2019-05-04T03:26:28.863Z,93.41
2019-05-04T03:28:57.262Z,93.82
2019-05-04T03:31:27.639Z,93.81
2019-05-04T03:33:58.207Z,94.17
2019-05-04T03:36:32.021Z,94.80
2019-05-04T03:38:58.432Z,93.87
2019-05-04T03:41:26.213Z,94.34
2019-05-04T03:43:55.996Z,94.56
2019-05-04T03:46:41.293Z,93.48
2019-05-04T03:49:11.409Z,94.04
2019-05-04T03:51:39.947Z,94.01
2019-05-04T03:54:08.347Z,94.06
2019-05-04T03:56:36.740Z,94.70
2019-05-04T03:59:05.165Z,93.93
2019-05-04T04:01:35.543Z,94.74
2019-05-04T04:04:05.299Z,95.30
2019-05-04T04:06:35.893Z,94.54
2019-05-04T04:09:14.123Z,94.88
2019-05-04T04:11:36.139Z,95.29
2019-05-04T04:14:05.773Z,95.10
2019-05-04T04:16:45.426Z,94.37
2019-05-04T04:19:15.186Z,94.59
2019-05-04T04:21:44.823Z,94.19
2019-05-04T04:24:15.160Z,94.52
2019-05-04T04:26:47.859Z,94.38
2019-05-04T04:29:18.061Z,94.58
2019-05-04T04:31:46.496Z,94.59
2019-05-04T04:34:15.658Z,94.59
2019-05-04T04:36:46.661Z,95.04
2019-05-04T04:39:28.546Z,94.77
2019-05-04T04:41:46.586Z,94.97
2019-05-04T04:44:15.751Z,95.52
2019-05-04T04:46:46.493Z,95.80
2019-05-04T04:49:15.635Z,95.17
2019-05-04T04:51:46.117Z,95.66
2019-05-04T04:54:15.647Z,95.81
2019-05-04T04:56:46.494Z,95.69
2019-05-04T04:59:19.903Z,95.29
2019-05-04T05:01:48.562Z,95.55
2019-05-04T05:04:17.153Z,96.10
2019-05-04T05:06:45.916Z,95.73
2019-05-04T05:09:14.930Z,95.59
2019-05-04T05:11:45.467Z,95.65
2019-05-04T05:14:14.364Z,95.07
2019-05-04T05:16:44.915Z,94.87
2019-05-04T05:19:14.977Z,95.16
2019-05-04T05:21:44.891Z,95.58
2019-05-04T05:24:14.866Z,95.11
2019-05-04T05:26:45.437Z,95.55
2019-05-04T05:29:15.221Z,95.65
2019-05-04T05:31:55.279Z,95.38
2019-05-04T05:34:28.362Z,95.80
2019-05-04T05:36:57.755Z,96.18
2019-05-04T05:39:26.156Z,96.04
2019-05-04T05:41:57.722Z,96.53
2019-05-04T05:44:25.191Z,96.17
2019-05-04T05:47:17.877Z,96.28
2019-05-04T05:49:49.852Z,96.25
2019-05-04T05:52:31.334Z,96.78
2019-05-04T05:55:06.924Z,96.51
2019-05-04T05:57:57.861Z,96.43
2019-05-04T06:00:45.418Z,96.37
2019-05-04T06:03:15.860Z,96.47
2019-05-04T06:05:45.905Z,96.90
2019-05-04T06:08:16.041Z,96.75
2019-05-04T06:10:48.963Z,96.83
2019-05-04T06:13:16.240Z,96.67
2019-05-04T06:16:01.369Z,96.64
2019-05-04T06:18:50.090Z,96.62
2019-05-04T06:21:18.191Z,96.37
2019-05-04T06:24:04.852Z,96.04
2019-05-04T06:26:37.612Z,96.03
2019-05-04T06:29:19.569Z,95.60
2019-05-04T06:31:55.337Z,96.08
2019-05-04T06:34:31.295Z,95.49
2019-05-04T06:36:57.257Z,95.37
2019-05-04T06:39:34.482Z,95.53
2019-05-04T06:42:06.800Z,95.74
2019-05-04T06:44:54.564Z,96.10
2019-05-04T06:47:18.659Z,95.76
2019-05-04T06:49:50.746Z,95.31
2019-05-04T06:52:28.324Z,95.32
2019-05-04T06:55:17.307Z,95.71
2019-05-04T06:57:44.078Z,96.07
2019-05-04T07:00:15.554Z,95.40
2019-05-04T07:02:44.764Z,94.83
2019-05-04T07:05:19.215Z,94.38
2019-05-04T07:07:45.210Z,94.53
2019-05-04T07:10:15.236Z,94.80
2019-05-04T07:12:45.527Z,94.82
2019-05-04T07:15:17.263Z,95.48
2019-05-04T07:17:44.323Z,95.89
2019-05-04T07:20:15.152Z,95.79
2019-05-04T07:22:44.987Z,95.08
2019-05-04T07:25:17.918Z,95.07
2019-05-04T07:27:44.221Z,95.51
2019-05-04T07:30:14.885Z,95.98
2019-05-04T07:32:44.162Z,94.76
2019-05-04T07:35:19.151Z,95.24
2019-05-04T07:37:59.364Z,95.54
2019-05-04T07:40:39.050Z,95.56
2019-05-04T07:43:07.525Z,95.79
2019-05-04T07:45:35.944Z,93.71
2019-05-04T07:48:08.822Z,94.10
2019-05-04T07:50:35.356Z,94.34
2019-05-04T07:53:05.978Z,93.50
2019-05-04T07:55:34.939Z,94.38
2019-05-04T07:58:05.503Z,93.84
2019-05-04T08:00:34.633Z,92.82
2019-05-04T08:03:04.776Z,91.84
2019-05-04T08:05:39.913Z,92.87
2019-05-04T08:08:05.445Z,93.08
2019-05-04T08:10:34.629Z,92.28
2019-05-04T08:13:06.967Z,91.61
2019-05-04T08:15:37.593Z,92.68
2019-05-04T08:18:06.013Z,92.06
2019-05-04T08:20:35.618Z,90.10
2019-05-04T08:23:05.226Z,91.69
2019-05-04T08:25:34.290Z,90.14
2019-05-04T08:28:04.812Z,90.93
2019-05-04T08:30:35.251Z,90.06
2019-05-04T08:33:04.789Z,91.95
2019-05-04T08:38:21.021Z,87.93
2019-05-04T08:40:49.438Z,87.92
2019-05-04T08:43:17.846Z,86.74
2019-05-04T08:45:49.939Z,84.63
2019-05-04T08:48:18.032Z,85.80
2019-05-04T08:51:04.660Z,86.95
2019-05-04T08:53:39.262Z,84.52
2019-05-04T08:56:10.929Z,84.38
2019-05-04T08:59:00.944Z,85.02
2019-05-04T09:01:27.626Z,85.55
2019-05-04T09:03:59.530Z,87.46
2019-05-04T09:06:33.799Z,88.31
2019-05-04T09:09:06.371Z,86.88
2019-05-04T09:11:30.055Z,81.96
2019-05-04T09:13:56.695Z,79.66
2019-05-04T09:16:29.201Z,78.06
2019-05-04T09:18:55.307Z,80.23
2019-05-04T09:21:24.568Z,80.98
2019-05-04T09:23:54.610Z,82.87
2019-05-04T09:26:24.787Z,81.77
2019-05-04T09:28:55.100Z,79.09
2019-05-04T09:31:24.876Z,78.29
2019-05-04T09:33:55.079Z,80.43
2019-05-04T09:36:24.037Z,78.62
2019-05-04T09:38:52.589Z,80.07
2019-05-04T09:41:37.597Z,76.20
2019-05-04T09:44:09.349Z,75.70
2019-05-04T09:46:40.176Z,74.49
2019-05-04T09:49:06.459Z,76.15
2019-05-04T09:51:36.492Z,75.70
2019-05-04T09:54:05.126Z,76.35
2019-05-04T09:56:35.051Z,78.10
2019-05-04T09:59:07.918Z,79.41
2019-05-04T10:01:34.912Z,80.17
2019-05-04T10:04:03.554Z,82.22
2019-05-04T10:06:31.929Z,82.35
2019-05-04T10:09:00.359Z,82.64
2019-05-04T10:11:34.842Z,84.65
2019-05-04T10:14:10.944Z,85.95
2019-05-04T10:16:57.567Z,83.18
2019-05-04T10:19:26.075Z,83.64
2019-05-04T10:21:56.165Z,86.59
2019-05-04T10:24:25.169Z,87.53
2019-05-04T10:27:04.513Z,85.58
2019-05-04T10:29:35.066Z,85.59
2019-05-04T10:32:05.003Z,83.70
2019-05-04T10:34:33.279Z,84.46
2019-05-04T10:37:01.685Z,86.53
2019-05-04T10:39:30.092Z,85.12
2019-05-04T10:41:58.485Z,80.59
2019-05-04T10:44:26.979Z,82.93
2019-05-04T10:46:55.368Z,83.18
2019-05-04T10:49:24.882Z,78.28
2019-05-04T10:51:55.153Z,79.69
2019-05-04T10:54:25.181Z,82.45
2019-05-04T10:56:54.366Z,82.08
2019-05-04T10:59:22.915Z,77.63
2019-05-04T11:01:54.201Z,79.00
2019-05-04T11:04:21.581Z,76.08
2019-05-04T11:06:50.005Z,77.46
2019-05-04T11:09:18.411Z,78.70
2019-05-04T11:11:46.896Z,77.49
2019-05-04T11:14:15.362Z,76.67
2019-05-04T11:16:45.250Z,75.29
2019-05-04T11:19:15.227Z,74.19
2019-05-04T11:21:44.155Z,74.37
2019-05-04T11:24:14.225Z,74.99
2019-05-04T11:26:45.223Z,73.34
2019-05-04T11:29:15.452Z,73.34
2019-05-04T11:31:45.241Z,72.11
2019-05-04T11:34:14.239Z,67.09
2019-05-04T11:36:44.532Z,63.08
2019-05-04T11:39:15.351Z,59.94
2019-05-04T11:41:44.308Z,61.23
2019-05-04T11:44:14.965Z,61.66
2019-05-04T11:46:54.559Z,60.08
2019-05-04T11:49:14.804Z,56.49
2019-05-04T11:51:45.057Z,55.60
2019-05-04T11:54:15.065Z,55.38
2019-05-04T11:56:45.141Z,59.74
2019-05-04T11:59:14.333Z,62.32
2019-05-04T12:01:44.832Z,64.67
2019-05-04T12:04:14.736Z,59.37
2019-05-04T12:06:47.752Z,61.16
2019-05-04T12:09:20.592Z,59.31
2019-05-04T12:11:48.998Z,58.34
2019-05-04T12:14:17.449Z,60.74
2019-05-04T12:16:45.867Z,60.59
2019-05-04T12:19:14.299Z,62.29
2019-05-04T12:21:42.689Z,62.54
2019-05-04T12:24:11.150Z,64.97
2019-05-04T12:26:39.521Z,60.46
2019-05-04T12:29:07.988Z,63.59
2019-05-04T12:31:36.400Z,61.76
2019-05-04T12:34:04.818Z,59.58
2019-05-04T12:36:34.291Z,58.53
2019-05-04T12:39:04.294Z,55.21
2019-05-04T12:41:34.623Z,56.86
2019-05-04T12:44:05.269Z,55.87
2019-05-04T12:46:34.323Z,56.24
2019-05-04T12:49:04.766Z,58.36
2019-05-04T12:51:35.160Z,58.99
2019-05-04T12:54:03.074Z,59.69
2019-05-04T12:56:31.461Z,60.03
2019-05-04T12:58:59.974Z,60.18
2019-05-04T13:01:28.380Z,59.86
2019-05-04T13:03:56.864Z,60.92
2019-05-04T13:06:25.284Z,62.78
2019-05-04T13:08:54.290Z,61.83
2019-05-04T13:11:24.893Z,61.27
2019-05-04T13:13:53.076Z,60.48
2019-05-04T13:16:21.466Z,61.29
2019-05-04T13:18:59.906Z,61.52
2019-05-04T13:21:27.249Z,60.23
2019-05-04T13:23:55.666Z,60.60
2019-05-04T13:26:25.951Z,58.49
2019-05-04T13:28:55.110Z,58.36
2019-05-04T13:31:25.514Z,60.44
2019-05-04T13:33:55.402Z,60.61
2019-05-04T13:36:24.610Z,63.64
2019-05-04T13:38:55.489Z,66.77
2019-05-04T13:41:25.489Z,69.39
2019-05-04T13:43:55.020Z,68.30
2019-05-04T13:46:25.053Z,68.65
2019-05-04T13:48:55.647Z,69.81
2019-05-04T13:51:24.488Z,68.47
2019-05-04T13:53:54.557Z,70.83
2019-05-04T13:56:27.480Z,70.09
2019-05-04T13:58:57.546Z,71.41
2019-05-04T14:01:45.016Z,71.03
2019-05-04T14:04:17.886Z,72.41
2019-05-04T14:06:46.299Z,71.96
2019-05-04T14:09:15.067Z,71.48
2019-05-04T14:11:44.807Z,71.48
2019-05-04T14:14:14.349Z,70.62
2019-05-04T14:16:44.635Z,70.27
2019-05-04T14:19:13.227Z,68.42
2019-05-04T14:21:41.756Z,70.54
2019-05-04T14:24:10.191Z,67.74
2019-05-04T14:26:38.683Z,65.89
2019-05-04T14:29:07.080Z,64.03
2019-05-04T14:31:35.650Z,64.99
2019-05-04T14:34:07.273Z,60.27
2019-05-04T14:36:34.667Z,61.45
2019-05-04T14:39:05.230Z,60.42
2019-05-04T14:41:33.732Z,61.24
2019-05-04T14:44:06.635Z,62.80
2019-05-04T14:46:44.966Z,60.32
2019-05-04T14:49:14.507Z,60.26
2019-05-04T14:51:45.040Z,63.76
2019-05-04T14:54:15.000Z,61.94
2019-05-04T14:56:45.125Z,62.45
2019-05-04T14:59:14.680Z,61.23
2019-05-04T15:01:45.103Z,61.97
2019-05-04T15:04:14.426Z,62.91
2019-05-04T15:06:44.378Z,62.84
2019-05-04T15:09:14.740Z,63.35
2019-05-04T15:11:45.367Z,65.21
2019-05-04T15:14:13.230Z,65.93
2019-05-04T15:16:41.643Z,69.10
2019-05-04T15:19:11.680Z,67.01
2019-05-04T15:21:40.083Z,71.95
2019-05-04T15:24:08.499Z,75.66
2019-05-04T15:26:37.015Z,77.60
2019-05-04T15:29:05.440Z,79.42
2019-05-04T15:31:35.209Z,80.62
2019-05-04T15:34:03.830Z,80.39
2019-05-04T15:36:34.172Z,79.61
2019-05-04T15:39:02.763Z,78.57
2019-05-04T15:41:31.178Z,79.03
2019-05-04T15:43:59.591Z,76.20
2019-05-04T15:46:28.000Z,77.11
2019-05-04T15:48:56.418Z,78.33
2019-05-04T15:51:35.613Z,77.51
2019-05-04T15:54:14.868Z,78.12
2019-05-04T15:56:44.914Z,75.80
2019-05-04T15:59:17.956Z,74.87
2019-05-04T16:01:46.374Z,74.71
2019-05-04T16:04:15.046Z,73.36
2019-05-04T16:06:44.926Z,73.76
2019-05-04T16:09:15.295Z,74.45
2019-05-04T16:11:44.185Z,71.39
2019-05-04T16:14:14.679Z,73.03
2019-05-04T16:16:44.670Z,73.10
2019-05-04T16:19:15.038Z,70.99
2019-05-04T16:21:44.727Z,70.03
2019-05-04T16:24:16.296Z,71.76
2019-05-04T16:26:44.436Z,72.55
2019-05-04T16:29:14.498Z,70.21
2019-05-04T16:31:44.986Z,67.28
2019-05-04T16:34:14.627Z,68.58
2019-05-04T16:36:44.963Z,70.22
2019-05-04T16:39:13.561Z,69.52
2019-05-04T16:41:41.976Z,71.00
2019-05-04T16:44:10.467Z,76.02
2019-05-04T16:46:38.881Z,75.40
2019-05-04T16:49:08.838Z,73.61
2019-05-04T16:51:41.699Z,76.39
2019-05-04T16:54:10.131Z,77.53
2019-05-04T16:56:38.567Z,78.01
2019-05-04T16:59:07.064Z,79.16
2019-05-04T17:01:37.922Z,79.96
2019-05-04T17:04:08.259Z,81.77
2019-05-04T17:06:37.042Z,84.40
2019-05-04T17:09:06.205Z,84.29
2019-05-04T17:11:35.258Z,81.58
2019-05-04T17:14:04.796Z,80.87
2019-05-04T17:16:33.287Z,81.94
2019-05-04T17:19:01.718Z,82.01
2019-05-04T17:21:30.112Z,82.88
2019-05-04T17:23:58.629Z,85.08
2019-05-04T17:26:44.996Z,86.44
2019-05-04T17:29:15.108Z,85.76
2019-05-04T17:31:43.705Z,85.35
2019-05-04T17:34:12.287Z,85.87
2019-05-04T17:36:42.343Z,85.57
2019-05-04T17:39:11.199Z,87.14
2019-05-04T17:41:41.462Z,88.02
2019-05-04T17:44:11.532Z,87.99
2019-05-04T17:46:41.665Z,89.46
2019-05-04T17:49:12.349Z,88.85
2019-05-04T17:51:40.433Z,88.38
2019-05-04T17:54:08.847Z,87.31
2019-05-04T17:56:37.269Z,87.36
2019-05-04T17:59:05.769Z,88.51
2019-05-04T18:01:51.804Z,87.36
2019-05-04T18:04:27.801Z,88.86
2019-05-04T18:06:56.291Z,89.02
2019-05-04T18:09:25.296Z,86.22
2019-05-04T18:11:55.533Z,88.35
2019-05-04T18:14:35.409Z,87.78
2019-05-04T18:17:05.720Z,88.16
2019-05-04T18:19:34.135Z,84.97
2019-05-04T18:22:04.733Z,87.37
2019-05-04T18:24:34.763Z,86.12
2019-05-04T18:27:04.371Z,85.73
2019-05-04T18:29:32.921Z,85.73
2019-05-04T18:32:01.323Z,87.27
2019-05-04T18:34:29.800Z,87.50
2019-05-04T18:36:58.293Z,87.47
2019-05-04T18:39:26.687Z,86.07
2019-05-04T18:41:56.762Z,87.34
2019-05-04T18:44:45.025Z,87.46
2019-05-04T18:47:20.836Z,87.54
2019-05-04T18:49:49.414Z,87.77
2019-05-04T18:52:17.906Z,88.27
2019-05-04T18:54:46.438Z,87.77
2019-05-04T18:57:15.520Z,88.15
2019-05-04T18:59:45.239Z,88.45
2019-05-04T19:02:14.376Z,89.47
2019-05-04T19:04:44.633Z,89.81
2019-05-04T19:07:14.824Z,90.33
2019-05-04T19:09:44.896Z,89.20
2019-05-04T19:12:14.450Z,89.35
2019-05-04T19:14:43.021Z,88.46
2019-05-04T19:17:11.707Z,89.97
2019-05-04T19:19:40.148Z,90.94
2019-05-04T19:22:08.619Z,90.97
2019-05-04T19:24:38.709Z,90.74
2019-05-04T19:27:07.184Z,90.09
2019-05-04T19:29:35.672Z,90.46
2019-05-04T19:32:04.832Z,91.24
2019-05-04T19:34:33.425Z,91.01
2019-05-04T19:37:01.861Z,91.34
2019-05-04T19:39:30.265Z,91.24
2019-05-04T19:42:18.621Z,90.97
2019-05-04T19:44:48.794Z,91.36
2019-05-04T19:47:23.070Z,91.88
2019-05-04T19:49:47.414Z,91.89
2019-05-04T19:52:15.852Z,92.16
2019-05-04T19:54:44.630Z,91.68
2019-05-04T19:57:15.838Z,92.07
2019-05-04T19:59:44.485Z,92.86
2019-05-04T20:02:13.109Z,92.58
2019-05-04T20:04:41.529Z,92.71
2019-05-04T20:07:11.605Z,92.76
2019-05-04T20:09:44.754Z,93.15
2019-05-04T20:12:17.704Z,92.97
2019-05-04T20:15:07.360Z,93.22
2019-05-04T20:17:16.342Z,93.58
2019-05-04T20:19:45.313Z,93.14
2019-05-04T20:22:14.768Z,92.54
2019-05-04T20:24:45.431Z,91.86
2019-05-04T20:27:14.837Z,92.15
2019-05-04T20:29:45.197Z,92.99
2019-05-04T20:32:14.909Z,92.68
2019-05-04T20:34:44.917Z,92.52
2019-05-04T20:37:15.422Z,93.39
2019-05-04T20:39:45.488Z,93.60
2019-05-04T20:42:15.716Z,93.40
2019-05-04T20:44:48.432Z,93.69
2019-05-04T20:47:24.596Z,93.60
2019-05-04T20:49:54.732Z,93.41
2019-05-04T20:52:25.027Z,93.58
2019-05-04T20:54:54.971Z,93.79
2019-05-04T20:57:24.773Z,94.38
2019-05-04T20:59:55.169Z,94.67
2019-05-04T21:02:25.070Z,94.54
2019-05-04T21:05:00.678Z,94.18
2019-05-04T21:07:29.154Z,94.29
2019-05-04T21:09:57.701Z,94.03
2019-05-04T21:12:26.117Z,94.28
2019-05-04T21:14:55.332Z,94.27
2019-05-04T21:17:31.172Z,93.54
2019-05-04T21:20:05.135Z,93.71
2019-05-04T21:22:35.462Z,94.06
2019-05-04T21:25:06.125Z,93.97
2019-05-04T21:27:34.599Z,94.29
2019-05-04T21:30:05.110Z,94.54
2019-05-04T21:32:34.973Z,94.69
2019-05-04T21:35:05.116Z,94.17
2019-05-04T21:37:35.157Z,94.28
2019-05-04T21:40:10.348Z,94.04
2019-05-04T21:42:37.789Z,94.04
2019-05-04T21:45:18.187Z,94.58
2019-05-04T21:47:55.277Z,94.53
2019-05-04T21:50:31.359Z,94.34
2019-05-04T21:52:59.839Z,93.58
2019-05-04T21:55:28.290Z,94.13
2019-05-04T21:57:56.769Z,94.63
2019-05-04T22:00:45.400Z,94.78
2019-05-04T22:03:35.079Z,94.88
2019-05-04T22:06:05.051Z,94.77
2019-05-04T22:08:33.577Z,94.55
2019-05-04T22:11:04.155Z,94.80
2019-05-04T22:13:34.900Z,94.66
2019-05-04T22:16:05.214Z,94.54
2019-05-04T22:18:34.813Z,94.09
2019-05-04T22:21:05.301Z,94.79
2019-05-04T22:23:35.148Z,95.00
2019-05-04T22:26:04.659Z,95.09
2019-05-04T22:28:33.206Z,95.04
2019-05-04T22:31:01.755Z,95.09
2019-05-04T22:33:30.241Z,95.15
2019-05-04T22:36:00.275Z,94.85
2019-05-04T22:38:35.001Z,94.83
2019-05-04T22:41:05.119Z,94.94
2019-05-04T22:43:34.260Z,94.85
2019-05-04T22:46:02.707Z,94.80
2019-05-04T22:48:45.376Z,94.70
2019-05-04T22:51:01.252Z,94.57
2019-05-04T22:53:31.381Z,94.83
2019-05-04T22:56:01.435Z,94.59
2019-05-04T22:58:34.770Z,95.06
2019-05-04T23:01:05.302Z,95.01
2019-05-04T23:03:35.437Z,94.65
2019-05-04T23:06:04.361Z,94.89
2019-05-04T23:08:32.812Z,94.73
2019-05-04T23:11:01.241Z,94.74
2019-05-04T23:13:29.704Z,95.04
2019-05-04T23:15:58.183Z,94.95
2019-05-04T23:18:26.631Z,95.06
2019-05-04T23:20:55.219Z,94.82
2019-05-04T23:23:24.924Z,95.21
2019-05-04T23:25:53.631Z,95.26
2019-05-04T23:28:22.015Z,94.99
2019-05-04T23:30:50.453Z,95.04
2019-05-04T23:33:18.837Z,94.95
2019-05-04T23:35:47.263Z,94.90
2019-05-04T23:38:15.656Z,94.71
2019-05-04T23:40:45.222Z,94.47
2019-05-04T23:43:14.445Z,94.01
2019-05-04T23:45:44.215Z,93.92
2019-05-04T23:48:17.895Z,93.95
2019-05-04T23:50:46.398Z,94.08
2019-05-04T23:53:14.914Z,93.93
2019-05-04T23:55:45.512Z,93.96
2019-05-04T23:58:15.727Z,93.97
